Time;durP1;ratioP1;P1;durP2;ratioP2;P2;SDS_P1;SDS_P2;PMS_P1;PMS_P2;Temp;Humidity;BMP_temperature;BMP_pressure;BME280_temperature;BME280_humidity;BME280_pressure;Samples;Min_cycle;Max_cycle;Signal;HPM_P1;HPM_P2
2022/06/12 00:01:10;;;;;;;;;;;;;;;21.23;74.89;100433.25;7405876;19;1697;-43
2022/06/12 00:03:39;;;;;;;;;;;;;;;21.21;75.35;100423.66;7404953;19;1538;-44
2022/06/12 00:06:07;;;;;;;;;;;;;;;21.22;75.06;100428.03;7407601;19;1011;-43
2022/06/12 00:08:39;;;;;;;;;;;;;;;21.25;75.13;100422.34;7404474;19;1941;-43
2022/06/12 00:11:09;;;;;;;;;;;;;;;21.13;75.46;100407.47;7404579;19;2017;-44
2022/06/12 00:13:39;;;;;;;;;;;;;;;21.12;75.50;100416.53;7402980;19;1771;-43
2022/06/12 00:16:08;;;;;;;;;;;;;;;21.13;75.27;100404.75;7406291;19;1762;-43
2022/06/12 00:18:36;;;;;;;;;;;;;;;21.14;75.15;100418.06;7405129;19;1108;-43
2022/06/12 00:21:15;;;;;;;;;;;;;;;21.13;75.17;100420.91;7406628;19;1000;-43
2022/06/12 00:24:08;;;;;;;;;;;;;;;21.12;75.33;100413.84;7407343;19;1043;-43
2022/06/12 00:26:40;;;;;;;;;;;;;;;20.96;75.52;100426.16;7405213;19;1779;-43
2022/06/12 00:29:11;;;;;;;;;;;;;;;20.92;76.05;100423.97;7401341;19;2020;-43
2022/06/12 00:31:41;;;;;;;;;;;;;;;20.95;75.54;100415.56;7406611;19;1628;-43
2022/06/12 00:34:10;;;;;;;;;;;;;;;21.03;75.52;100438.00;7405307;19;1541;-43
2022/06/12 00:36:38;;;;;;;;;;;;;;;20.99;75.60;100417.81;7404612;19;1431;-43
2022/06/12 00:39:08;;;;;;;;;;;;;;;20.92;75.66;100399.78;7404653;19;1739;-44
2022/06/12 00:41:39;;;;;;;;;;;;;;;21.00;75.32;100406.03;7406948;19;958;-43
2022/06/12 00:44:08;;;;;;;;;;;;;;;20.99;75.51;100409.75;7401023;19;1828;-43
2022/06/12 00:46:38;;;;;;;;;;;;;;;21.09;75.00;100417.72;7402204;19;1945;-43
2022/06/12 00:49:09;;;;;;;;;;;;;;;21.08;75.10;100418.69;7402501;19;1856;-43
2022/06/12 00:51:38;;;;;;;;;;;;;;;21.08;74.88;100399.88;7404249;19;1947;-43
2022/06/12 00:54:06;;;;;;;;;;;;;;;20.98;75.13;100397.28;7404729;19;1713;-43
2022/06/12 00:56:37;;;;;;;;;;;;;;;21.02;74.85;100403.19;7406289;19;1039;-43
2022/06/12 00:59:09;;;;;;;;;;;;;;;21.02;75.09;100395.13;7401887;19;1858;-43
2022/06/12 01:01:42;;;;;;;;;;;;;;;21.10;74.73;100419.38;7403822;19;1756;-43
2022/06/12 01:06:54;;;;;;;;;;;;;;;21.05;75.12;100402.91;7405386;19;1768;-44
2022/06/12 01:09:24;;;;;;;;;;;;;;;21.03;74.94;100391.47;7401849;19;1846;-43
2022/06/12 01:11:54;;;;;;;;;;;;;;;20.97;75.22;100395.63;7405596;19;993;-43
2022/06/12 01:14:27;;;;;;;;;;;;;;;20.95;75.40;100396.75;7402315;19;1762;-43
2022/06/12 01:16:56;;;;;;;;;;;;;;;21.03;75.05;100389.59;7402840;19;1545;-43
2022/06/12 01:19:28;;;;;;;;;;;;;;;21.09;75.17;100387.25;7404200;19;1417;-43
2022/06/12 01:22:03;;;;;;;;;;;;;;;21.11;75.10;100399.56;7404047;19;1932;-43
2022/06/12 01:24:41;;;;;;;;;;;;;;;21.11;75.33;100394.19;7403826;19;1736;-43
2022/06/12 01:27:20;;;;;;;;;;;;;;;21.04;75.26;100391.28;7404473;19;1236;-43
2022/06/12 01:29:54;;;;;;;;;;;;;;;21.00;75.34;100387.22;7402574;19;1850;-43
2022/06/12 01:32:27;;;;;;;;;;;;;;;20.99;75.51;100393.63;7403564;19;1817;-43
2022/06/12 01:34:58;;;;;;;;;;;;;;;21.08;75.11;100374.84;7402478;19;1722;-43
2022/06/12 01:37:34;;;;;;;;;;;;;;;21.06;75.23;100372.31;7402358;19;1809;-43
2022/06/12 01:40:08;;;;;;;;;;;;;;;21.05;75.00;100382.22;7400276;19;1915;-43
2022/06/12 01:42:39;;;;;;;;;;;;;;;21.06;75.21;100366.94;7403259;19;1024;-43
2022/06/12 01:45:21;;;;;;;;;;;;;;;21.04;75.09;100380.53;7402558;19;2063;-43
2022/06/12 01:47:54;;;;;;;;;;;;;;;21.06;74.99;100396.50;7403521;19;1859;-43
2022/06/12 01:50:25;;;;;;;;;;;;;;;21.10;75.28;100389.81;7403417;19;1649;-43
2022/06/12 01:53:04;;;;;;;;;;;;;;;21.09;74.94;100381.88;7402516;19;1502;-43
2022/06/12 01:55:36;;;;;;;;;;;;;;;21.13;74.85;100385.94;7402507;19;1496;-43
2022/06/12 01:58:07;;;;;;;;;;;;;;;21.15;74.83;100378.56;7401996;19;1040;-43
2022/06/12 02:00:38;;;;;;;;;;;;;;;21.11;74.99;100378.06;7399196;19;3557;-62
2022/06/12 02:03:10;;;;;;;;;;;;;;;21.11;74.93;100382.56;7402477;19;1628;-58
2022/06/12 02:05:42;;;;;;;;;;;;;;;21.12;74.82;100386.97;7406050;19;1786;-59
2022/06/12 02:08:15;;;;;;;;;;;;;;;21.12;74.83;100392.34;7405131;19;1863;-62
2022/06/12 02:10:46;;;;;;;;;;;;;;;21.12;74.86;100395.88;7406091;19;1593;-58
2022/06/12 02:13:14;;;;;;;;;;;;;;;21.08;75.07;100397.19;7406901;19;1055;-62
2022/06/12 02:15:48;;;;;;;;;;;;;;;21.08;75.05;100396.34;7406413;19;1679;-59
2022/06/12 02:18:20;;;;;;;;;;;;;;;21.08;75.09;100386.44;7406574;19;1710;-62
2022/06/12 02:20:51;;;;;;;;;;;;;;;21.08;75.06;100388.28;7405962;19;1659;-58
2022/06/12 02:23:24;;;;;;;;;;;;;;;21.08;75.17;100394.50;7405757;19;1485;-59
2022/06/12 02:25:55;;;;;;;;;;;;;;;21.11;75.37;100398.69;7405037;19;1605;-62
2022/06/12 02:28:26;;;;;;;;;;;;;;;21.11;74.91;100382.56;7404739;19;1858;-62
2022/06/12 02:31:00;;;;;;;;;;;;;;;21.08;75.00;100396.34;7406339;19;1079;-62
2022/06/12 02:33:31;;;;;;;;;;;;;;;21.06;75.06;100397.34;7406060;19;1020;-60
2022/06/12 02:36:01;;;;;;;;;;;;;;;21.02;75.38;100395.13;7405903;19;1727;-58
2022/06/12 02:38:32;;;;;;;;;;;;;;;21.10;75.09;100411.31;7405057;19;1694;-62
2022/06/12 02:41:04;;;;;;;;;;;;;;;21.10;75.21;100399.72;7404778;19;1573;-62
2022/06/12 02:43:34;;;;;;;;;;;;;;;21.11;75.30;100399.56;7401376;19;1643;-59
2022/06/12 02:46:08;;;;;;;;;;;;;;;21.06;75.17;100394.66;7403995;19;1464;-58
2022/06/12 02:48:36;;;;;;;;;;;;;;;21.06;75.40;100397.34;7405046;19;1858;-63
2022/06/12 02:51:09;;;;;;;;;;;;;;;21.08;75.44;100402.56;7406189;19;974;-63
2022/06/12 02:53:46;;;;;;;;;;;;;;;21.12;75.07;100411.16;7401840;19;1713;-61
2022/06/12 02:56:19;;;;;;;;;;;;;;;21.07;75.17;100411.66;7404291;19;1543;-62
2022/06/12 02:58:53;;;;;;;;;;;;;;;21.08;75.18;100399.88;7405339;19;1442;-62
2022/06/12 03:01:28;;;;;;;;;;;;;;;21.08;75.21;100399.03;7404662;19;999;-62
2022/06/12 03:04:01;;;;;;;;;;;;;;;21.02;75.32;100395.97;7405919;19;929;-62
2022/06/12 03:06:30;;;;;;;;;;;;;;;21.03;75.10;100389.59;7404907;19;1742;-62
2022/06/12 03:08:58;;;;;;;;;;;;;;;20.97;75.43;100390.25;7403141;19;1856;-59
2022/06/12 03:11:28;;;;;;;;;;;;;;;21.01;75.38;100401.53;7411378;19;1837;-63
2022/06/12 03:13:57;;;;;;;;;;;;;;;20.92;75.63;100402.47;7412511;19;1401;-62
2022/06/12 03:16:30;;;;;;;;;;;;;;;20.87;75.68;100392.19;7411929;19;1548;-62
2022/06/12 03:19:01;;;;;;;;;;;;;;;20.86;75.77;100393.16;7411482;19;1422;-62
2022/06/12 03:21:41;;;;;;;;;;;;;;;20.91;75.54;100398.06;7411896;19;1512;-59
2022/06/12 03:24:21;;;;;;;;;;;;;;;20.94;75.42;100395.06;7411769;19;1625;-59
2022/06/12 03:26:55;;;;;;;;;;;;;;;21.01;75.34;100385.41;7412535;19;995;-62
2022/06/12 03:29:28;;;;;;;;;;;;;;;20.95;75.37;100380.63;7407345;19;1838;-58
2022/06/12 03:32:03;;;;;;;;;;;;;;;20.98;75.63;100386.53;7410037;19;1638;-62
2022/06/12 03:34:37;;;;;;;;;;;;;;;20.97;75.48;100397.44;7409661;19;1350;-61
2022/06/12 03:37:08;;;;;;;;;;;;;;;20.95;75.30;100386.88;7411312;19;1932;-62
2022/06/12 03:39:40;;;;;;;;;;;;;;;21.01;75.48;100396.16;7411496;19;1339;-59
2022/06/12 03:42:14;;;;;;;;;;;;;;;21.08;75.20;100375.69;7412075;19;1001;-62
2022/06/12 03:44:44;;;;;;;;;;;;;;;21.01;75.41;100388.09;7408930;19;1487;-59
2022/06/12 03:47:18;;;;;;;;;;;;;;;21.04;75.16;100391.28;7409804;19;1638;-62
2022/06/12 03:49:49;;;;;;;;;;;;;;;21.09;75.03;100392.66;7408137;19;1849;-58
2022/06/12 03:52:21;;;;;;;;;;;;;;;21.05;75.07;100398.34;7410802;19;1359;-59
2022/06/12 03:54:52;;;;;;;;;;;;;;;21.08;75.41;100390.97;7410543;19;1434;-60
2022/06/12 04:00:08;;;;;;;;;;;;;;;21.06;75.08;100383.06;7410550;19;1237;-58
2022/06/12 04:02:41;;;;;;;;;;;;;;;21.08;75.14;100385.59;7407254;19;1180;-62
2022/06/12 04:05:10;;;;;;;;;;;;;;;21.02;75.15;100371.78;7409960;19;1393;-62
2022/06/12 04:07:44;;;;;;;;;;;;;;;20.98;75.76;100385.69;7409871;19;1323;-59
2022/06/12 04:10:17;;;;;;;;;;;;;;;21.03;75.43;100378.84;7407349;19;1849;-58
2022/06/12 04:12:45;;;;;;;;;;;;;;;21.04;75.30;100385.91;7410024;19;937;-59
2022/06/12 04:15:18;;;;;;;;;;;;;;;21.02;75.68;100377.16;7409189;19;1549;-59
2022/06/12 04:17:49;;;;;;;;;;;;;;;21.07;75.73;100382.06;7409991;19;1618;-59
2022/06/12 04:20:19;;;;;;;;;;;;;;;21.04;75.90;100380.53;7408801;19;1429;-62
2022/06/12 04:22:49;;;;;;;;;;;;;;;20.57;75.94;100311.00;7409036;19;1625;-62
2022/06/12 04:25:27;;;;;;;;;;;;;;;21.00;75.97;100387.22;7409108;19;1240;-59
2022/06/12 04:27:56;;;;;;;;;;;;;;;20.97;76.07;100390.25;7409649;19;965;-59
2022/06/12 04:30:26;;;;;;;;;;;;;;;21.02;75.82;100404.03;7406969;19;1842;-59
2022/06/12 04:33:11;;;;;;;;;;;;;;;20.94;76.11;100390.53;7405751;19;1447;-59
2022/06/12 04:35:44;;;;;;;;;;;;;;;21.00;75.84;100379.16;7405880;19;1563;-62
2022/06/12 04:38:12;;;;;;;;;;;;;;;21.05;75.56;100398.34;7407230;19;1512;-59
2022/06/12 04:40:40;;;;;;;;;;;;;;;21.00;75.89;100403.34;7407461;19;1452;-59
2022/06/12 04:43:09;;;;;;;;;;;;;;;21.08;75.69;100397.19;7408990;19;1579;-60
2022/06/12 04:45:37;;;;;;;;;;;;;;;21.23;74.97;100395.59;7407058;19;1582;-62
2022/06/12 04:48:09;;;;;;;;;;;;;;;21.36;75.17;100402.38;7407888;19;1488;-60
2022/06/12 04:50:37;;;;;;;;;;;;;;;21.46;74.80;100403.16;6374322;19;9999915;-63
2022/06/12 04:53:05;;;;;;;;;;;;;;;21.45;74.46;100396.09;7399014;19;1381;-59
2022/06/12 04:55:34;;;;;;;;;;;;;;;21.53;74.56;100406.06;7401888;19;1693;-60
2022/06/12 04:58:05;;;;;;;;;;;;;;;21.53;74.53;100406.88;7400156;19;1293;-61
2022/06/12 05:00:34;;;;;;;;;;;;;;;21.60;74.54;100407.91;7401081;19;1198;-60
2022/06/12 05:03:02;;;;;;;;;;;;;;;21.59;74.22;100418.88;7400551;19;1473;-60
2022/06/12 05:05:34;;;;;;;;;;;;;;;21.49;75.44;100410.91;7399717;19;1261;-59
2022/06/12 05:08:02;;;;;;;;;;;;;;;21.55;75.26;100409.44;7399925;19;1408;-65
2022/06/12 05:10:31;;;;;;;;;;;;;;;21.63;74.69;100418.38;7399256;19;1906;-58
2022/06/12 05:12:59;;;;;;;;;;;;;;;21.73;74.45;100417.41;7401461;19;1178;-57
2022/06/12 05:15:27;;;;;;;;;;;;;;;21.72;74.44;100421.09;7400373;19;1496;-57
2022/06/12 05:17:56;;;;;;;;;;;;;;;21.72;74.54;100421.09;7400444;19;1114;-57
2022/06/12 05:20:26;;;;;;;;;;;;;;;21.75;74.92;100418.94;7400321;19;1422;-56
2022/06/12 05:22:57;;;;;;;;;;;;;;;21.74;74.42;100428.00;7400450;19;1329;-56
2022/06/12 05:25:26;;;;;;;;;;;;;;;21.74;74.78;100436.06;7399700;19;1478;-57
2022/06/12 05:27:55;;;;;;;;;;;;;;;21.75;74.82;100426.16;7400383;19;1202;-58
2022/06/12 05:30:25;;;;;;;;;;;;;;;21.78;74.81;100425.81;7398625;19;1864;-58
2022/06/12 05:32:55;;;;;;;;;;;;;;;21.81;74.49;100430.91;7397556;19;1474;-56
2022/06/12 05:35:24;;;;;;;;;;;;;;;21.86;74.93;100431.25;7400848;19;1406;-60
2022/06/12 05:37:53;;;;;;;;;;;;;;;22.01;74.11;100434.16;7399112;19;1172;-57
2022/06/12 05:40:25;;;;;;;;;;;;;;;21.96;74.14;100439.19;7399871;19;1610;-57
2022/06/12 05:42:54;;;;;;;;;;;;;;;21.80;74.49;100440.78;7400884;19;1622;-57
2022/06/12 05:45:24;;;;;;;;;;;;;;;21.77;75.46;100449.22;7398492;19;1421;-61
2022/06/12 05:47:54;;;;;;;;;;;;;;;21.63;75.29;100441.75;7399359;19;1344;-58
2022/06/12 05:50:23;;;;;;;;;;;;;;;21.62;75.41;100453.50;7396228;19;2316;-61
2022/06/12 05:52:52;;;;;;;;;;;;;;;21.67;75.37;100466.50;7399155;19;1387;-58
2022/06/12 05:55:21;;;;;;;;;;;;;;;21.67;75.05;100451.19;7399737;19;1748;-60
2022/06/12 05:57:52;;;;;;;;;;;;;;;21.73;75.52;100455.09;7399429;19;1755;-57
2022/06/12 06:00:24;;;;;;;;;;;;;;;21.74;75.46;100462.97;7399463;19;1326;-58
2022/06/12 06:02:52;;;;;;;;;;;;;;;21.64;75.66;100473.03;7398572;19;1193;-57
2022/06/12 06:05:21;;;;;;;;;;;;;;;21.64;75.30;100473.03;7396527;19;1406;-58
2022/06/12 06:07:49;;;;;;;;;;;;;;;21.64;75.04;100467.66;7399567;19;1240;-57
2022/06/12 06:10:19;;;;;;;;;;;;;;;21.69;75.20;100456.41;7396532;19;1870;-57
2022/06/12 06:12:47;;;;;;;;;;;;;;;21.76;75.43;100470.91;7397717;19;1344;-59
2022/06/12 06:15:19;;;;;;;;;;;;;;;21.92;75.33;100473.66;7396517;19;1559;-56
2022/06/12 06:17:47;;;;;;;;;;;;;;;21.80;76.05;100473.09;7398988;19;1796;-56
2022/06/12 06:20:33;;;;;;;;;;;;;;;21.73;75.22;100474.75;7398568;19;1772;-61
2022/06/12 06:23:01;;;;;;;;;;;;;;;21.67;75.87;100477.25;7394676;19;1268;-60
2022/06/12 06:25:31;;;;;;;;;;;;;;;21.79;75.72;100476.81;7397701;19;1343;-64
2022/06/12 06:28:00;;;;;;;;;;;;;;;21.91;75.80;100484.63;7397744;19;1756;-65
2022/06/12 06:30:31;;;;;;;;;;;;;;;22.00;75.22;100472.84;7395823;19;1855;-65
2022/06/12 06:41:26;;;;;;;;;;;;;;;21.92;75.43;100459.38;7389314;19;1671;-42
2022/06/12 06:46:42;;;;;;;;;;;;;;;21.72;76.37;100470.38;7396402;19;1919;-43
2022/06/12 06:49:15;;;;;;;;;;;;;;;21.73;76.79;100473.94;7396987;19;1855;-43
2022/06/12 06:51:47;;;;;;;;;;;;;;;21.71;76.16;100466.00;7394755;19;1438;-43
2022/06/12 06:54:20;;;;;;;;;;;;;;;21.71;75.76;100466.00;7396726;19;1677;-43
2022/06/12 06:56:51;;;;;;;;;;;;;;;21.74;75.94;100475.59;7396945;19;2574;-44
2022/06/12 06:59:28;;;;;;;;;;;;;;;21.72;75.79;100474.91;7396508;19;1844;-43
2022/06/12 07:02:01;;;;;;;;;;;;;;;21.63;76.16;100455.22;7395037;19;1589;-43
2022/06/12 07:04:31;;;;;;;;;;;;;;;21.63;76.32;100472.19;7397271;19;1344;-44
2022/06/12 07:07:01;;;;;;;;;;;;;;;21.60;76.53;100472.50;7396789;19;1654;-43
2022/06/12 07:09:33;;;;;;;;;;;;;;;21.61;76.22;100476.06;7395595;19;1954;-42
2022/06/12 07:12:06;;;;;;;;;;;;;;;21.61;76.32;100473.38;7397546;19;1468;-42
2022/06/12 07:14:39;;;;;;;;;;;;;;;21.69;76.20;100486.84;7396356;19;1567;-43
2022/06/12 07:17:20;;;;;;;;;;;;;;;21.75;76.28;100482.69;7395264;19;1743;-42
2022/06/12 07:19:50;;;;;;;;;;;;;;;21.73;75.99;100480.16;7396368;19;1416;-42
2022/06/12 07:22:18;;;;;;;;;;;;;;;21.72;75.95;100478.44;7396508;19;1843;-42
2022/06/12 07:24:47;;;;;;;;;;;;;;;21.74;75.37;100462.16;7396325;19;1459;-43
2022/06/12 07:27:17;;;;;;;;;;;;;;;21.75;75.78;100478.13;7396534;19;1606;-43
2022/06/12 07:29:53;;;;;;;;;;;;;;;21.69;76.04;100481.47;7393981;19;1877;-42
2022/06/12 07:32:26;;;;;;;;;;;;;;;21.93;75.68;100488.81;7398640;19;1783;-42
2022/06/12 07:35:06;;;;;;;;;;;;;;;;;;;;;
2022/06/12 07:37:39;;;;;;;;;;;;;;;22.01;74.93;100469.16;7397538;19;1926;-41
2022/06/12 07:40:11;;;;;;;;;;;;;;;22.10;75.32;100489.72;7398307;19;1654;-40
2022/06/12 07:42:41;;;;;;;;;;;;;;;22.07;75.50;100484.66;7399680;19;1675;-41
2022/06/12 07:45:21;;;;;;;;;;;;;;;22.13;75.14;100492.09;7399763;19;2069;-41
2022/06/12 07:47:56;;;;;;;;;;;;;;;22.31;74.99;100480.41;7399866;19;1458;-41
2022/06/12 07:50:26;;;;;;;;;;;;;;;22.47;74.55;100491.22;7399943;19;1846;-42
2022/06/12 07:52:58;;;;;;;;;;;;;;;22.40;74.59;100492.88;7399699;19;1909;-41
2022/06/12 07:55:26;;;;;;;;;;;;;;;22.34;74.63;100469.28;7400026;19;1299;-42
2022/06/12 07:57:57;;;;;;;;;;;;;;;22.49;74.96;100504.53;7407557;19;1380;-41
2022/06/12 08:00:30;;;;;;;;;;;;;;;22.30;75.12;100492.19;7407150;19;1955;-42
2022/06/12 08:03:03;;;;;;;;;;;;;;;22.31;75.24;100486.63;7405449;19;1777;-40
2022/06/12 08:05:35;;;;;;;;;;;;;;;22.31;75.11;100466.94;7406471;19;1546;-41
2022/06/12 08:08:03;;;;;;;;;;;;;;;22.39;75.03;100489.34;7408401;19;1015;-42
2022/06/12 08:10:35;;;;;;;;;;;;;;;22.28;75.29;100464.56;7406528;19;1846;-42
2022/06/12 08:13:16;;;;;;;;;;;;;;;22.15;75.49;100481.16;7407314;19;1743;-42
2022/06/12 08:15:46;;;;;;;;;;;;;;;22.14;75.39;100484.84;7406958;19;1956;-41
2022/06/12 08:21:18;;;;;;;;;;;;;;;22.40;75.97;100479.41;7406955;19;1527;-42
2022/06/12 08:23:52;;;;;;;;;;;;;;;22.52;75.42;100467.31;7405631;19;1860;-42
2022/06/12 08:26:24;;;;;;;;;;;;;;;22.52;75.24;100461.94;7405187;19;1943;-42
2022/06/12 08:28:55;;;;;;;;;;;;;;;22.48;75.80;100465.94;7406166;19;1728;-42
2022/06/12 08:31:25;;;;;;;;;;;;;;;22.48;75.77;100490.19;7404657;19;1850;-42
2022/06/12 08:33:57;;;;;;;;;;;;;;;22.35;76.59;100477.22;7405760;19;1565;-43
2022/06/12 08:36:36;;;;;;;;;;;;;;;22.26;76.33;100477.34;7406409;19;1582;-43
2022/06/12 08:39:07;;;;;;;;;;;;;;;22.11;77.05;100483.34;7405006;19;1434;-44
2022/06/12 08:41:40;;;;;;;;;;;;;;;22.28;77.29;100486.94;7405349;19;1566;-43
2022/06/12 08:44:21;;;;;;;;;;;;;;;22.31;76.34;100497.41;7405780;19;1817;-42
2022/06/12 08:46:53;;;;;;;;;;;;;;;22.17;76.69;100495.31;7403995;19;1266;-43
2022/06/12 08:49:25;;;;;;;;;;;;;;;22.29;76.21;100483.25;7401891;19;2077;-44
2022/06/12 08:52:00;;;;;;;;;;;;;;;22.19;77.12;100488.75;7391861;19;2271;-43
2022/06/12 08:54:32;;;;;;;;;;;;;;;22.23;77.22;100484.72;7404138;19;1943;-43
2022/06/12 08:57:04;;;;;;;;;;;;;;;22.29;76.92;100493.19;7404250;19;1812;-44
2022/06/12 08:59:38;;;;;;;;;;;;;;;22.30;76.97;100487.63;7402677;19;1671;-43
2022/06/12 09:02:07;;;;;;;;;;;;;;;22.31;76.76;100488.50;7398396;19;1702;-43
2022/06/12 09:04:36;;;;;;;;;;;;;;;22.33;76.78;100481.09;7401396;19;1655;-43
2022/06/12 09:07:10;;;;;;;;;;;;;;;22.41;76.75;100476.53;7401883;19;1922;-42
2022/06/12 09:09:41;;;;;;;;;;;;;;;22.50;76.76;100479.25;7403372;19;1573;-43
2022/06/12 09:12:12;;;;;;;;;;;;;;;22.60;77.23;100474.53;7405586;19;1764;-42
2022/06/12 09:14:51;;;;;;;;;;;;;;;22.59;77.07;100462.94;7402811;19;1807;-45
2022/06/12 09:17:27;;;;;;;;;;;;;;;22.49;77.67;100472.19;7403440;19;1374;-41
2022/06/12 09:20:00;;;;;;;;;;;;;;;22.69;78.62;100462.78;7404475;19;1683;-41
2022/06/12 09:22:34;;;;;;;;;;;;;;;22.82;78.07;100459.59;7402378;19;1917;-42
2022/06/12 09:25:05;;;;;;;;;;;;;;;22.76;78.04;100473.72;7402465;19;1913;-43
2022/06/12 09:27:37;;;;;;;;;;;;;;;22.70;77.84;100474.41;7402851;19;1298;-41
2022/06/12 09:30:08;;;;;;;;;;;;;;;22.54;78.62;100469.81;7403776;19;1957;-41
2022/06/12 09:32:54;;;;;;;;;;;;;;;22.58;78.04;100477.44;7400516;19;1586;-42
2022/06/12 09:35:32;;;;;;;;;;;;;;;22.66;76.50;100456.88;7401748;19;1624;-42
2022/06/12 09:38:22;;;;;;;;;;;;;;;22.65;77.33;100453.34;7404335;19;1629;-42
2022/06/12 09:41:01;;;;;;;;;;;;;;;22.19;77.27;100475.28;7403406;19;2076;-41
2022/06/12 09:43:35;;;;;;;;;;;;;;;21.23;75.71;100467.38;7403855;19;1819;-41
2022/06/12 09:46:05;;;;;;;;;;;;;;;20.38;75.11;100458.88;7404445;19;1823;-42
2022/06/12 09:48:44;;;;;;;;;;;;;;;19.91;73.67;100472.44;7404801;19;1103;-41
2022/06/12 09:51:17;;;;;;;;;;;;;;;19.71;72.67;100451.03;7403892;19;1855;-41
2022/06/12 09:54:00;;;;;;;;;;;;;;;19.75;71.30;100446.22;7404740;19;963;-41
2022/06/12 09:56:36;;;;;;;;;;;;;;;19.78;70.18;100446.78;7403050;19;1690;-42
2022/06/12 09:59:08;;;;;;;;;;;;;;;19.91;70.16;100446.44;7402508;19;1808;-41
2022/06/12 10:01:38;;;;;;;;;;;;;;;20.01;70.87;100432.97;7401653;19;1472;-41
2022/06/12 10:04:13;;;;;;;;;;;;;;;19.96;71.71;100432.59;7402872;19;1702;-41
2022/06/12 10:06:44;;;;;;;;;;;;;;;19.77;70.92;100433.50;7402467;19;1612;-41
2022/06/12 10:09:15;;;;;;;;;;;;;;;19.76;70.68;100438.03;7402547;19;1486;-41
2022/06/12 10:11:48;;;;;;;;;;;;;;;19.71;70.81;100428.72;7402391;19;1858;-41
2022/06/12 10:14:18;;;;;;;;;;;;;;;19.76;71.64;100421.94;7401852;19;1873;-41
2022/06/12 10:16:49;;;;;;;;;;;;;;;19.77;71.30;100415.56;7399410;19;1963;-41
2022/06/12 10:19:18;;;;;;;;;;;;;;;19.74;71.18;100415.88;7401097;19;1815;-41
2022/06/12 10:21:49;;;;;;;;;;;;;;;19.79;71.23;100416.25;7401332;19;2065;-41
2022/06/12 10:24:17;;;;;;;;;;;;;;;19.88;71.10;100397.59;6367103;19;10001088;-42
2022/06/12 10:26:58;;;;;;;;;;;;;;;19.94;70.89;100408.56;7396138;19;1820;-41
2022/06/12 10:29:27;;;;;;;;;;;;;;;20.00;71.21;100396.41;7394432;19;1675;-41
2022/06/12 10:32:01;;;;;;;;;;;;;;;20.42;73.21;100387.75;7394767;19;2008;-42
2022/06/12 10:34:31;;;;;;;;;;;;;;;20.61;73.65;100389.44;7394850;19;2279;-41
2022/06/12 10:37:11;;;;;;;;;;;;;;;20.69;74.68;100377.91;7395593;19;1753;-41
2022/06/12 10:39:40;;;;;;;;;;;;;;;20.77;75.42;100394.09;7394964;19;1576;-41
2022/06/12 10:42:31;;;;;;;;;;;;;;;20.44;73.97;100389.28;7394542;19;1481;-41
2022/06/12 10:45:00;;;;;;;;;;;;;;;20.00;72.77;100362.34;7395220;19;1724;-41
2022/06/12 10:47:30;;;;;;;;;;;;;;;19.91;72.70;100378.50;7394818;19;1730;-41
2022/06/12 10:50:21;;;;;;;;;;;;;;;19.81;72.16;100379.41;7394954;19;1623;-42
2022/06/12 10:52:54;;;;;;;;;;;;;;;19.79;71.59;100386.75;7394544;19;1700;-42
2022/06/12 10:55:26;;;;;;;;;;;;;;;19.84;71.33;100386.31;7394919;19;2047;-42
2022/06/12 10:58:05;;;;;;;;;;;;;;;19.83;70.99;100384.63;7394544;19;1822;-42
2022/06/12 11:00:37;;;;;;;;;;;;;;;19.82;70.67;100373.06;7394438;19;1741;-41
2022/06/12 11:03:10;;;;;;;;;;;;;;;20.25;73.20;100374.19;7394943;19;1704;-42
2022/06/12 11:05:45;;;;;;;;;;;;;;;20.48;73.23;100364.81;7393656;19;1572;-41
2022/06/12 11:08:23;;;;;;;;;;;;;;;20.66;73.94;100363.78;7393708;19;1727;-41
2022/06/12 11:10:56;;;;;;;;;;;;;;;20.59;74.23;100370.81;7393351;19;1855;-42
2022/06/12 11:13:34;;;;;;;;;;;;;;;20.08;72.81;100340.13;7394626;19;1598;-41
2022/06/12 11:16:16;;;;;;;;;;;;;;;19.88;72.25;100338.56;7399447;19;1484;-42
2022/06/12 11:18:50;;;;;;;;;;;;;;;19.80;71.70;100342.84;7394983;19;1966;-41
2022/06/12 11:21:24;;;;;;;;;;;;;;;19.97;72.61;100337.63;7400485;19;1609;-42
2022/06/12 11:24:01;;;;;;;;;;;;;;;20.35;74.01;100335.63;7401661;19;1086;-41
2022/06/12 11:26:40;;;;;;;;;;;;;;;20.57;74.11;100337.00;7400780;19;1891;-41
2022/06/12 11:29:20;;;;;;;;;;;;;;;20.66;75.38;100334.25;7398942;19;2044;-41
2022/06/12 11:31:58;;;;;;;;;;;;;;;20.44;74.26;100315.91;7403156;19;1854;-41
2022/06/12 11:34:36;;;;;;;;;;;;;;;19.98;73.20;100312.50;7408657;19;1603;-41
2022/06/12 11:37:17;;;;;;;;;;;;;;;19.85;72.62;100319.06;7408259;19;1797;-41
2022/06/12 11:39:48;;;;;;;;;;;;;;;19.74;72.41;100318.47;7407235;19;1496;-41
2022/06/12 11:42:19;;;;;;;;;;;;;;;20.07;71.27;100316.94;7404945;19;1794;-41
2022/06/12 11:44:59;;;;;;;;;;;;;;;20.56;69.99;100327.25;7406535;19;1564;-41
2022/06/12 11:47:35;;;;;;;;;;;;;;;20.93;69.89;100300.16;7407173;19;1726;-41
2022/06/12 11:50:11;;;;;;;;;;;;;;;21.16;70.06;100331.88;7407590;19;1547;-41
2022/06/12 11:52:46;;;;;;;;;;;;;;;21.34;70.00;100359.50;7404382;19;1851;-41
2022/06/12 11:55:26;;;;;;;;;;;;;;;21.37;69.56;100359.22;7406805;19;1871;-41
2022/06/12 11:58:02;;;;;;;;;;;;;;;21.45;69.62;100366.50;7407277;19;992;-41
2022/06/12 12:00:37;;;;;;;;;;;;;;;21.49;69.76;100377.75;7407161;19;1710;-41
2022/06/12 12:03:13;;;;;;;;;;;;;;;21.45;70.06;100351.19;7407173;19;2031;-42
2022/06/12 12:05:49;;;;;;;;;;;;;;;21.48;70.21;100355.41;7405885;19;2060;-41
2022/06/12 12:08:36;;;;;;;;;;;;;;;21.52;70.49;100372.91;7407239;19;1959;-41
2022/06/12 12:11:09;;;;;;;;;;;;;;;21.50;70.19;100342.63;7405979;19;1826;-42
2022/06/12 12:13:42;;;;;;;;;;;;;;;21.54;70.45;100337.78;7402711;19;1632;-42
2022/06/12 12:16:30;;;;;;;;;;;;;;;21.56;70.45;100336.59;7406324;19;1472;-41
2022/06/12 12:19:01;;;;;;;;;;;;;;;21.57;70.73;100343.69;7406042;19;1458;-41
2022/06/12 12:21:32;;;;;;;;;;;;;;;21.63;70.93;100347.56;7406752;19;1885;-42
2022/06/12 12:24:02;;;;;;;;;;;;;;;21.60;70.81;100364.03;7407057;19;1491;-42
2022/06/12 12:26:33;;;;;;;;;;;;;;;21.58;70.86;100334.59;7406607;19;2037;-41
2022/06/12 12:29:03;;;;;;;;;;;;;;;21.62;73.22;100337.81;7404994;19;1702;-42
2022/06/12 12:31:34;;;;;;;;;;;;;;;21.54;75.16;100340.47;7405114;19;1865;-42
2022/06/12 12:34:04;;;;;;;;;;;;;;;21.32;76.57;100345.38;7405442;19;1668;-41
2022/06/12 12:42:06;;;;;;;;;;;;;;;21.37;76.82;100369.97;7403919;19;1463;-41
2022/06/12 12:44:36;;;;;;;;;;;;;;;21.32;77.28;100372.28;7404150;19;1831;-42
2022/06/12 12:47:18;;;;;;;;;;;;;;;21.25;77.95;100361.34;7404911;19;1763;-42
2022/06/12 12:49:46;;;;;;;;;;;;;;;21.29;78.09;100343.03;7404916;19;1597;-41
2022/06/12 12:52:16;;;;;;;;;;;;;;;21.37;77.22;100342.22;7403611;19;1848;-41
2022/06/12 12:54:46;;;;;;;;;;;;;;;21.43;77.22;100339.75;7405382;19;1617;-41
2022/06/12 12:57:16;;;;;;;;;;;;;;;21.50;76.57;100326.50;7406027;19;1652;-43
2022/06/12 12:59:45;;;;;;;;;;;;;;;21.50;76.84;100339.94;7403729;19;1783;-41
2022/06/12 13:02:31;;;;;;;;;;;;;;;21.43;76.99;100337.06;7402296;19;1729;-43
2022/06/12 13:05:04;;;;;;;;;;;;;;;21.39;77.83;100337.53;7403771;19;1880;-41
2022/06/12 13:07:46;;;;;;;;;;;;;;;21.42;77.74;100340.72;7404007;19;1819;-42
2022/06/12 13:10:29;;;;;;;;;;;;;;;21.44;77.47;100332.53;7401156;19;1653;-41
2022/06/12 13:13:18;;;;;;;;;;;;;;;21.51;77.48;100340.81;7403206;19;1853;-41
2022/06/12 13:15:49;;;;;;;;;;;;;;;21.41;77.64;100339.03;7403950;19;1590;-41
2022/06/12 13:18:26;;;;;;;;;;;;;;;21.50;76.84;100347.19;7403442;19;1551;-41
2022/06/12 13:21:04;;;;;;;;;;;;;;;21.52;76.53;100355.94;7405186;19;1721;-41
2022/06/12 13:23:50;;;;;;;;;;;;;;;21.45;77.79;100355.75;7404452;19;1787;-41
2022/06/12 13:26:20;;;;;;;;;;;;;;;21.45;77.75;100374.56;7404457;19;1812;-41
2022/06/12 13:28:55;;;;;;;;;;;;;;;21.40;77.71;100375.00;7401051;19;1861;-42
2022/06/12 13:31:23;;;;;;;;;;;;;;;21.34;77.77;100366.75;7402290;19;1857;-41
2022/06/12 13:33:54;;;;;;;;;;;;;;;21.32;77.63;100374.97;7403731;19;1422;-41
2022/06/12 13:36:26;;;;;;;;;;;;;;;21.30;77.53;100385.03;7403187;19;1631;-42
2022/06/12 13:38:56;;;;;;;;;;;;;;;21.33;77.41;100400.88;7403587;19;1346;-41
2022/06/12 13:41:27;;;;;;;;;;;;;;;21.31;77.21;100377.81;7402805;19;1672;-41